createdAt,value
2022-08-08T00:00:53.279Z,2.03
2022-08-08T00:03:33.471Z,2.33
2022-08-08T00:06:28.505Z,1.87
2022-08-08T00:09:27.605Z,1.60
2022-08-08T00:12:09.238Z,1.80
2022-08-08T00:14:57.000Z,2.00
2022-08-08T00:18:02.140Z,1.87
2022-08-08T00:20:29.668Z,2.07
2022-08-08T00:23:02.887Z,1.70
2022-08-08T00:25:53.201Z,1.57
2022-08-08T00:28:34.210Z,1.83
2022-08-08T00:32:33.051Z,1.90
2022-08-08T00:34:46.103Z,2.30
2022-08-08T00:37:48.015Z,1.93
2022-08-08T00:41:12.219Z,1.93
2022-08-08T00:43:59.353Z,2.13
2022-08-08T00:47:14.279Z,2.00
2022-08-08T00:50:11.437Z,2.17
2022-08-08T00:52:54.095Z,1.60
2022-08-08T00:55:52.617Z,1.97
2022-08-08T00:58:33.169Z,2.13
2022-08-08T01:01:38.440Z,2.10
2022-08-08T01:04:43.274Z,2.27
2022-08-08T01:07:23.784Z,1.80
2022-08-08T01:10:14.007Z,2.00
2022-08-08T01:13:16.807Z,2.37
2022-08-08T01:16:27.743Z,1.67
2022-08-08T01:19:25.672Z,2.17
2022-08-08T01:22:34.726Z,2.07
2022-08-08T01:25:40.824Z,2.30
2022-08-08T01:28:18.817Z,1.80
2022-08-08T01:32:05.829Z,1.80
2022-08-08T01:34:20.298Z,2.37
2022-08-08T01:37:05.976Z,1.83
2022-08-08T01:40:18.980Z,1.97
2022-08-08T01:43:14.136Z,2.53
2022-08-08T01:46:05.412Z,2.73
2022-08-08T01:48:43.829Z,2.20
2022-08-08T01:52:03.726Z,2.20
2022-08-08T01:55:16.221Z,1.77
2022-08-08T01:57:33.769Z,1.87
2022-08-08T02:00:33.228Z,2.20
2022-08-08T02:03:55.202Z,2.10
2022-08-08T02:06:36.891Z,2.47
2022-08-08T02:10:02.055Z,2.60
2022-08-08T02:12:32.372Z,2.50
2022-08-08T02:15:14.000Z,1.77
2022-08-08T02:18:10.449Z,2.10
2022-08-08T02:21:18.262Z,2.07
2022-08-08T02:24:06.148Z,1.70
2022-08-08T02:26:50.908Z,2.60
2022-08-08T02:29:54.138Z,1.83
2022-08-08T02:32:37.710Z,1.93
2022-08-08T02:36:04.448Z,2.20
2022-08-08T02:39:42.300Z,2.17
2022-08-08T02:42:15.706Z,2.27
2022-08-08T02:45:18.262Z,1.93
2022-08-08T02:48:40.907Z,2.67
2022-08-08T02:51:59.054Z,2.47
2022-08-08T02:54:37.843Z,2.40
2022-08-08T02:57:44.953Z,2.33
2022-08-08T03:00:31.378Z,2.07
2022-08-08T03:03:11.123Z,2.10
2022-08-08T03:06:35.062Z,1.83
2022-08-08T03:09:50.548Z,1.87
2022-08-08T03:13:02.065Z,2.17
2022-08-08T03:16:00.782Z,2.07
2022-08-08T03:18:31.289Z,2.10
2022-08-08T03:20:58.596Z,2.40
2022-08-08T03:23:39.876Z,1.90
2022-08-08T03:26:16.823Z,2.67
2022-08-08T03:28:56.250Z,2.27
2022-08-08T03:32:06.308Z,1.80
2022-08-08T03:34:30.476Z,2.10
2022-08-08T03:37:00.930Z,2.33
2022-08-08T03:39:51.738Z,2.30
2022-08-08T03:42:30.693Z,2.40
2022-08-08T03:45:00.291Z,2.37
2022-08-08T03:47:45.577Z,2.87
2022-08-08T03:50:20.097Z,2.10
2022-08-08T03:52:51.694Z,2.70
2022-08-08T03:55:57.812Z,2.50
2022-08-08T03:58:35.471Z,2.23
2022-08-08T04:01:20.638Z,2.40
2022-08-08T04:03:57.305Z,2.50
2022-08-08T04:06:29.597Z,2.00
2022-08-08T04:08:57.913Z,2.50
2022-08-08T04:11:25.557Z,2.30
2022-08-08T04:14:04.387Z,1.80
2022-08-08T04:16:40.875Z,2.63
2022-08-08T04:19:24.963Z,2.30
2022-08-08T04:21:52.687Z,2.00
2022-08-08T04:24:29.522Z,2.30
2022-08-08T04:27:00.614Z,2.50
2022-08-08T04:29:33.346Z,2.90
2022-08-08T04:32:06.800Z,2.50
2022-08-08T04:34:49.165Z,2.57
2022-08-08T04:37:20.800Z,2.40
2022-08-08T04:40:06.435Z,2.63
2022-08-08T04:42:36.778Z,2.50
2022-08-08T04:45:05.060Z,2.67
2022-08-08T04:47:32.365Z,2.90
2022-08-08T04:50:06.713Z,2.00
2022-08-08T04:52:41.378Z,2.30
2022-08-08T04:55:15.427Z,2.40
2022-08-08T04:57:44.993Z,2.30
2022-08-08T05:00:19.557Z,2.50
2022-08-08T05:02:46.870Z,2.33
2022-08-08T05:05:44.685Z,2.50
2022-08-08T05:08:12.720Z,2.40
2022-08-08T05:10:42.172Z,2.33
2022-08-08T05:13:17.561Z,2.60
2022-08-08T05:16:54.856Z,2.70
2022-08-08T05:18:33.489Z,2.57
2022-08-08T05:21:05.700Z,2.07
2022-08-08T05:23:41.192Z,2.00
2022-08-08T05:26:15.574Z,1.97
2022-08-08T05:28:55.885Z,2.10
2022-08-08T05:32:05.394Z,2.90
2022-08-08T05:34:34.697Z,2.47
2022-08-08T05:37:15.983Z,2.13
2022-08-08T05:39:54.561Z,2.57
2022-08-08T05:42:39.621Z,2.30
2022-08-08T05:45:24.665Z,2.10
2022-08-08T05:48:01.392Z,2.10
2022-08-08T05:50:36.226Z,1.60
2022-08-08T05:53:23.116Z,1.90
2022-08-08T05:56:11.656Z,1.90
2022-08-08T05:58:53.728Z,2.00
2022-08-08T06:01:57.033Z,1.73
2022-08-08T06:04:22.678Z,1.77
2022-08-08T06:07:00.339Z,2.20
2022-08-08T06:09:59.038Z,2.10
2022-08-08T06:12:30.251Z,1.97
2022-08-08T06:15:03.341Z,2.37
2022-08-08T06:18:18.645Z,2.43
2022-08-08T06:20:23.086Z,3.13
2022-08-08T06:22:53.711Z,2.20
2022-08-08T06:25:33.207Z,2.20
2022-08-08T06:28:32.561Z,2.40
2022-08-08T06:31:02.260Z,1.80
2022-08-08T06:34:26.281Z,2.20
2022-08-08T06:36:53.258Z,2.80
2022-08-08T06:39:21.959Z,1.80
2022-08-08T06:42:04.717Z,2.27
2022-08-08T06:44:36.612Z,2.30
2022-08-08T06:47:09.102Z,2.10
2022-08-08T06:49:56.614Z,2.20
2022-08-08T06:52:24.137Z,2.27
2022-08-08T06:54:58.711Z,2.10
2022-08-08T06:57:53.719Z,2.90
2022-08-08T07:00:16.921Z,2.20
2022-08-08T07:03:04.822Z,2.30
2022-08-08T07:05:40.165Z,2.70
2022-08-08T07:08:20.978Z,2.30
2022-08-08T07:10:50.967Z,3.03
2022-08-08T07:13:22.925Z,2.20
2022-08-08T07:16:13.654Z,1.97
2022-08-08T07:18:57.539Z,2.57
2022-08-08T07:21:31.004Z,2.00
2022-08-08T07:24:06.668Z,2.80
2022-08-08T07:26:40.142Z,2.63
2022-08-08T07:29:08.013Z,2.43
2022-08-08T07:31:38.818Z,2.13
2022-08-08T07:34:09.095Z,1.97
2022-08-08T07:36:42.078Z,2.33
2022-08-08T07:39:29.011Z,1.63
2022-08-08T07:42:04.394Z,2.03
2022-08-08T07:44:37.032Z,2.27
2022-08-08T07:47:05.436Z,2.27
2022-08-08T07:49:32.318Z,2.10
2022-08-08T07:52:04.874Z,2.40
2022-08-08T07:54:49.052Z,2.03
2022-08-08T07:57:53.750Z,2.47
2022-08-08T08:00:21.922Z,1.67
2022-08-08T08:03:08.796Z,2.03
2022-08-08T08:05:50.950Z,2.47
2022-08-08T08:08:27.730Z,1.63
2022-08-08T08:10:59.528Z,1.87
2022-08-08T08:13:43.054Z,1.90
2022-08-08T08:16:32.054Z,3.50
2022-08-08T08:19:10.126Z,2.20
2022-08-08T08:21:57.237Z,1.87
2022-08-08T08:24:30.974Z,2.23
2022-08-08T08:27:02.956Z,2.27
2022-08-08T08:29:30.853Z,2.03
2022-08-08T08:31:59.158Z,1.90
2022-08-08T08:34:33.704Z,1.50
2022-08-08T08:37:07.949Z,1.60
2022-08-08T08:40:00.204Z,1.80
2022-08-08T08:42:31.631Z,2.17
2022-08-08T08:45:21.664Z,1.20
2022-08-08T08:47:58.508Z,1.97
2022-08-08T08:50:33.313Z,2.37
2022-08-08T08:53:27.190Z,1.90
2022-08-08T08:56:02.303Z,1.40
2022-08-08T08:58:49.867Z,1.50
2022-08-08T09:01:19.596Z,1.83
2022-08-08T09:03:50.814Z,1.10
2022-08-08T09:06:33.457Z,1.40
2022-08-08T09:09:26.215Z,1.37
2022-08-08T09:12:02.005Z,1.70
2022-08-08T09:14:33.971Z,2.40
2022-08-08T09:17:09.755Z,1.30
2022-08-08T09:21:59.847Z,1.90
2022-08-08T09:22:28.298Z,1.53
2022-08-08T09:24:56.682Z,1.27
2022-08-08T09:27:57.071Z,1.50
2022-08-08T09:30:17.360Z,1.60
2022-08-08T09:33:11.828Z,1.40
2022-08-08T09:35:48.840Z,2.17
2022-08-08T09:38:30.039Z,1.30
2022-08-08T09:41:05.167Z,1.47
2022-08-08T09:44:06.158Z,1.50
2022-08-08T09:46:45.137Z,1.40
2022-08-08T09:49:49.606Z,1.60
2022-08-08T09:52:56.402Z,1.80
2022-08-08T09:55:07.161Z,1.40
2022-08-08T09:57:46.261Z,1.50
2022-08-08T10:00:53.119Z,1.73
2022-08-08T10:03:05.074Z,1.77
2022-08-08T10:05:42.069Z,1.67
2022-08-08T10:08:13.900Z,2.40
2022-08-08T10:10:50.174Z,1.67
2022-08-08T10:13:35.443Z,1.53
2022-08-08T10:16:03.990Z,1.37
2022-08-08T10:18:34.455Z,1.50
2022-08-08T10:21:25.031Z,1.53
2022-08-08T10:24:03.147Z,2.00
2022-08-08T10:26:58.586Z,1.60
2022-08-08T10:29:57.228Z,1.73
2022-08-08T10:32:38.298Z,1.73
2022-08-08T10:35:20.597Z,1.50
2022-08-08T10:38:04.237Z,1.63
2022-08-08T10:40:38.279Z,2.00
2022-08-08T10:43:07.011Z,1.60
2022-08-08T10:45:56.031Z,1.70
2022-08-08T10:48:58.418Z,1.90
2022-08-08T10:51:31.049Z,1.30
2022-08-08T10:54:01.888Z,1.77
2022-08-08T10:56:43.080Z,1.57
2022-08-08T10:59:14.602Z,1.80
2022-08-08T11:01:49.634Z,1.70
2022-08-08T11:04:29.599Z,1.33
2022-08-08T11:07:02.684Z,2.00
2022-08-08T11:09:32.286Z,1.50
2022-08-08T11:12:13.621Z,1.57
2022-08-08T11:15:01.580Z,1.30
2022-08-08T11:18:00.298Z,1.43
2022-08-08T11:20:28.538Z,1.77
2022-08-08T11:22:56.337Z,1.77
2022-08-08T11:25:53.000Z,1.70
2022-08-08T11:28:29.070Z,2.17
2022-08-08T11:31:04.574Z,1.73
2022-08-08T11:33:52.800Z,1.60
2022-08-08T11:36:22.683Z,1.80
2022-08-08T11:38:56.197Z,1.50
2022-08-08T11:41:33.573Z,1.63
2022-08-08T11:44:08.116Z,1.80
2022-08-08T11:46:36.892Z,1.70
2022-08-08T11:49:11.377Z,1.40
2022-08-08T11:51:50.655Z,1.70
2022-08-08T11:54:33.930Z,1.50
2022-08-08T11:57:23.760Z,1.67
2022-08-08T12:00:02.750Z,1.90
2022-08-08T12:02:45.712Z,1.70
2022-08-08T12:05:13.741Z,1.47
2022-08-08T12:07:51.027Z,1.67
2022-08-08T12:10:26.379Z,1.83
2022-08-08T12:13:03.428Z,1.40
2022-08-08T12:15:42.066Z,1.50
2022-08-08T12:18:28.624Z,1.57
2022-08-08T12:20:58.829Z,1.40
2022-08-08T12:23:59.256Z,1.60
2022-08-08T12:27:03.298Z,1.50
2022-08-08T12:29:42.221Z,1.70
2022-08-08T12:32:19.900Z,1.60
2022-08-08T12:34:57.512Z,1.77
2022-08-08T12:37:41.113Z,1.70
2022-08-08T12:40:22.857Z,1.20
2022-08-08T12:42:52.984Z,1.37
2022-08-08T12:45:58.105Z,1.60
2022-08-08T12:48:37.333Z,1.57
2022-08-08T12:51:10.691Z,1.47
2022-08-08T12:54:24.482Z,1.93
2022-08-08T12:56:55.497Z,1.73
2022-08-08T12:59:36.242Z,1.30
2022-08-08T13:02:28.242Z,1.40
2022-08-08T13:04:59.397Z,1.50
2022-08-08T13:08:03.813Z,1.50
2022-08-08T13:10:32.816Z,1.70
2022-08-08T13:13:06.191Z,1.33
2022-08-08T13:15:36.067Z,1.00
2022-08-08T13:18:11.494Z,1.58
2022-08-08T13:20:45.763Z,1.10
2022-08-08T13:23:41.571Z,1.00
2022-08-08T13:26:14.883Z,0.80
2022-08-08T13:28:45.600Z,1.00
2022-08-08T13:31:16.311Z,0.85
2022-08-08T13:33:50.840Z,1.20
2022-08-08T13:36:26.157Z,0.80
2022-08-08T13:38:54.697Z,0.95
2022-08-08T13:41:26.191Z,1.10
2022-08-08T13:44:10.866Z,1.13
2022-08-08T13:46:38.897Z,0.77
2022-08-08T13:50:37.622Z,1.17
2022-08-08T13:52:09.523Z,0.90
2022-08-08T13:54:49.747Z,0.80
2022-08-08T13:57:17.551Z,1.10
2022-08-08T14:00:09.581Z,1.00
2022-08-08T14:02:37.628Z,0.93
2022-08-08T14:05:22.087Z,0.90
2022-08-08T14:07:56.993Z,0.90
2022-08-08T14:10:37.251Z,1.30
2022-08-08T14:13:31.227Z,1.00
2022-08-08T14:16:03.691Z,1.20
2022-08-08T14:18:36.954Z,0.93
2022-08-08T14:21:20.999Z,1.00
2022-08-08T14:24:07.709Z,1.00
2022-08-08T14:26:46.136Z,1.00
2022-08-08T14:29:28.146Z,0.85
2022-08-08T14:32:09.275Z,0.93
2022-08-08T14:34:42.865Z,1.00
2022-08-08T14:37:13.225Z,0.90
2022-08-08T14:40:05.474Z,1.00
2022-08-08T14:42:54.631Z,1.05
2022-08-08T14:45:33.268Z,0.90
2022-08-08T14:48:27.429Z,1.02
2022-08-08T14:51:06.753Z,0.93
2022-08-08T14:53:55.618Z,1.42
2022-08-08T14:56:25.250Z,1.30
2022-08-08T14:58:53.022Z,1.38
2022-08-08T15:01:40.697Z,1.60
2022-08-08T15:04:09.778Z,1.60
2022-08-08T15:06:37.527Z,1.50
2022-08-08T15:09:06.973Z,1.40
2022-08-08T15:11:43.353Z,1.67
2022-08-08T15:14:15.020Z,1.83
2022-08-08T15:16:44.279Z,1.70
2022-08-08T15:19:11.636Z,1.60
2022-08-08T15:21:44.893Z,1.67
2022-08-08T15:24:16.186Z,1.70
2022-08-08T15:26:52.446Z,1.73
2022-08-08T15:29:25.609Z,1.63
2022-08-08T15:32:03.661Z,2.27
2022-08-08T15:34:43.042Z,2.20
2022-08-08T15:37:13.089Z,1.70
2022-08-08T15:39:40.217Z,1.67
2022-08-08T15:42:10.227Z,1.77
2022-08-08T15:44:42.966Z,1.93
2022-08-08T15:47:16.237Z,1.57
2022-08-08T15:49:48.161Z,1.53
2022-08-08T15:52:17.317Z,1.73
2022-08-08T15:54:47.756Z,1.67
2022-08-08T15:57:18.184Z,1.70
2022-08-08T16:00:18.204Z,1.33
2022-08-08T16:02:37.670Z,1.73
2022-08-08T16:05:14.210Z,1.47
2022-08-08T16:07:52.843Z,1.63
2022-08-08T16:13:05.262Z,1.60
2022-08-08T16:13:43.659Z,1.80
2022-08-08T16:16:16.425Z,1.23
2022-08-08T16:18:56.937Z,1.80
2022-08-08T16:21:31.613Z,1.60
2022-08-08T16:24:02.027Z,1.40
2022-08-08T16:26:35.056Z,1.83
2022-08-08T16:29:17.949Z,1.83
2022-08-08T16:31:50.899Z,1.70
2022-08-08T16:34:21.913Z,1.70
2022-08-08T16:36:56.341Z,1.50
2022-08-08T16:40:00.954Z,1.67
2022-08-08T16:42:17.632Z,1.70
2022-08-08T16:44:47.449Z,1.50
2022-08-08T16:47:41.365Z,1.40
2022-08-08T16:50:13.744Z,1.17
2022-08-08T16:55:07.220Z,1.40
2022-08-08T16:55:55.233Z,1.43
2022-08-08T16:58:25.403Z,1.67
2022-08-08T17:00:58.998Z,1.50
2022-08-08T17:03:58.358Z,1.40
2022-08-08T17:06:23.531Z,1.77
2022-08-08T17:09:06.060Z,1.60
2022-08-08T17:11:39.422Z,1.60
2022-08-08T17:14:19.047Z,1.97
2022-08-08T17:16:57.775Z,1.70
2022-08-08T17:19:28.982Z,2.60
2022-08-08T17:21:57.896Z,1.60
2022-08-08T17:24:30.160Z,2.00
2022-08-08T17:27:01.593Z,1.87
2022-08-08T17:29:34.024Z,2.03
2022-08-08T17:32:07.770Z,1.77
2022-08-08T17:35:04.212Z,1.83
2022-08-08T17:37:25.468Z,1.73
2022-08-08T17:40:12.191Z,2.10
2022-08-08T17:42:47.053Z,1.70
2022-08-08T17:45:23.279Z,2.10
2022-08-08T17:47:52.240Z,2.10
2022-08-08T17:50:21.881Z,1.93
2022-08-08T17:52:49.612Z,1.90
2022-08-08T17:56:04.874Z,1.93
2022-08-08T17:58:06.109Z,2.10
2022-08-08T18:00:33.279Z,1.80
2022-08-08T18:03:13.862Z,1.73
2022-08-08T18:05:49.836Z,2.17
2022-08-08T18:08:37.614Z,1.80
2022-08-08T18:11:14.628Z,2.07
2022-08-08T18:13:47.261Z,1.93
2022-08-08T18:16:20.712Z,1.83
2022-08-08T18:18:55.946Z,2.03
2022-08-08T18:21:59.173Z,2.53
2022-08-08T18:24:22.174Z,2.00
2022-08-08T18:26:54.484Z,2.10
2022-08-08T18:29:34.109Z,1.93
2022-08-08T18:32:07.517Z,2.10
2022-08-08T18:34:36.532Z,2.20
2022-08-08T18:37:06.715Z,1.97
2022-08-08T18:39:41.212Z,2.33
2022-08-08T18:42:14.231Z,2.30
2022-08-08T18:44:55.230Z,1.93
2022-08-08T18:47:24.313Z,2.10
2022-08-08T18:49:58.249Z,1.87
2022-08-08T18:52:26.981Z,2.10
2022-08-08T18:55:00.233Z,1.90
2022-08-08T18:57:40.784Z,3.90
2022-08-08T19:00:15.871Z,2.47
2022-08-08T19:02:54.954Z,2.30
2022-08-08T19:05:30.565Z,3.47
2022-08-08T19:08:07.814Z,2.20
2022-08-08T19:10:37.544Z,2.47
2022-08-08T19:13:20.758Z,2.10
2022-08-08T19:15:48.963Z,2.20
2022-08-08T19:18:33.445Z,2.03
2022-08-08T19:21:29.906Z,2.23
2022-08-08T19:23:58.042Z,2.40
2022-08-08T19:26:29.939Z,2.20
2022-08-08T19:29:04.755Z,2.47
2022-08-08T19:31:35.638Z,2.17
2022-08-08T19:34:29.824Z,2.20
2022-08-08T19:36:59.307Z,2.10
2022-08-08T19:39:34.982Z,2.30
2022-08-08T19:42:03.674Z,2.80
2022-08-08T19:44:43.158Z,2.70
2022-08-08T19:47:13.716Z,2.13
2022-08-08T19:49:59.880Z,2.23
2022-08-08T19:52:34.667Z,2.60
2022-08-08T19:55:12.714Z,3.10
2022-08-08T19:57:45.441Z,2.40
2022-08-08T20:00:29.281Z,2.03
2022-08-08T20:02:59.876Z,2.67
2022-08-08T20:06:14.256Z,2.47
2022-08-08T20:08:29.240Z,2.73
2022-08-08T20:10:59.864Z,2.30
2022-08-08T20:14:32.574Z,2.50
2022-08-08T20:16:14.161Z,3.00
2022-08-08T20:18:53.125Z,2.60
2022-08-08T20:21:25.340Z,2.40
2022-08-08T20:23:58.131Z,2.93
2022-08-08T20:26:27.622Z,3.33
2022-08-08T20:29:02.285Z,2.53
2022-08-08T20:32:07.696Z,2.57
2022-08-08T20:34:28.852Z,2.97
2022-08-08T20:37:00.634Z,2.67
2022-08-08T20:39:39.699Z,2.43
2022-08-08T20:42:15.533Z,3.30
2022-08-08T20:44:42.864Z,2.13
2022-08-08T20:47:16.025Z,3.00
2022-08-08T20:49:50.870Z,2.77
2022-08-08T20:52:23.697Z,2.70
2022-08-08T20:54:50.651Z,1.83
2022-08-08T20:57:19.018Z,2.03
2022-08-08T20:59:50.456Z,2.80
2022-08-08T21:02:25.871Z,2.50
2022-08-08T21:05:00.969Z,2.50
2022-08-08T21:07:47.957Z,1.97
2022-08-08T21:10:17.150Z,2.33
2022-08-08T21:12:48.449Z,2.80
2022-08-08T21:16:05.777Z,2.33
2022-08-08T21:18:11.579Z,2.30
2022-08-08T21:20:39.633Z,2.20
2022-08-08T21:23:09.959Z,2.40
2022-08-08T21:25:40.254Z,2.03
2022-08-08T21:28:16.378Z,2.60
2022-08-08T21:30:52.157Z,2.20
2022-08-08T21:33:20.653Z,1.87
2022-08-08T21:36:16.529Z,1.87
2022-08-08T21:38:35.136Z,2.33
2022-08-08T21:41:02.233Z,3.40
2022-08-08T21:43:33.459Z,2.43
2022-08-08T21:48:20.365Z,2.87
2022-08-08T21:48:51.946Z,6.43
2022-08-08T21:54:17.401Z,2.30
2022-08-08T21:54:32.492Z,2.27
2022-08-08T21:57:00.915Z,2.17
2022-08-08T22:00:01.565Z,2.03
2022-08-08T22:02:16.032Z,1.97
2022-08-08T22:04:46.344Z,2.03
2022-08-08T22:07:13.292Z,2.00
2022-08-08T22:09:41.072Z,2.30
2022-08-08T22:12:16.665Z,1.70
2022-08-08T22:14:50.078Z,1.93
2022-08-08T22:17:19.665Z,2.00
2022-08-08T22:20:11.930Z,1.70
2022-08-08T22:22:36.108Z,2.13
2022-08-08T22:25:12.176Z,2.20
2022-08-08T22:28:02.550Z,2.00
2022-08-08T22:30:34.605Z,2.17
2022-08-08T22:33:02.879Z,2.30
2022-08-08T22:36:04.833Z,2.00
2022-08-08T22:38:23.263Z,1.70
2022-08-08T22:40:50.903Z,1.60
2022-08-08T22:43:18.339Z,2.10
2022-08-08T22:45:46.497Z,1.80
2022-08-08T22:48:19.249Z,2.00
2022-08-08T22:50:51.034Z,1.90
2022-08-08T22:54:27.693Z,2.10
2022-08-08T22:56:05.523Z,2.23
2022-08-08T22:58:34.230Z,2.53
2022-08-08T23:02:00.839Z,2.20
2022-08-08T23:03:59.602Z,2.07
2022-08-08T23:06:26.811Z,2.13
2022-08-08T23:08:58.913Z,2.23
2022-08-08T23:11:58.080Z,1.97
2022-08-08T23:14:25.551Z,1.87
2022-08-08T23:16:59.013Z,1.90
2022-08-08T23:19:32.719Z,2.30
2022-08-08T23:22:06.957Z,1.83
2022-08-08T23:24:41.587Z,1.87
2022-08-08T23:27:17.252Z,2.17
2022-08-08T23:30:00.713Z,2.63
2022-08-08T23:32:29.946Z,2.17
2022-08-08T23:34:59.595Z,2.10
2022-08-08T23:37:54.098Z,1.93
2022-08-08T23:40:14.921Z,2.37
2022-08-08T23:42:45.326Z,1.97
2022-08-08T23:45:15.376Z,2.30
2022-08-08T23:49:04.761Z,2.60
2022-08-08T23:50:35.408Z,2.43
2022-08-08T23:53:05.309Z,2.47
2022-08-08T23:55:32.319Z,2.53
2022-08-08T23:58:05.522Z,2.30
